sensor_id;sensor_type;location;lat;lon;timestamp;P1;durP1;ratioP1;P2;durP2;ratioP2
18726;SDS011;9492;51.888;5.186;2023-08-30T00:00:38;6.40;;;4.77;;
18726;SDS011;9492;51.888;5.186;2023-08-30T00:03:05;6.67;;;4.67;;
18726;SDS011;9492;51.888;5.186;2023-08-30T00:05:31;6.37;;;4.93;;
18726;SDS011;9492;51.888;5.186;2023-08-30T00:07:57;6.77;;;4.93;;
18726;SDS011;9492;51.888;5.186;2023-08-30T00:10:23;6.00;;;5.00;;
18726;SDS011;9492;51.888;5.186;2023-08-30T00:12:49;6.30;;;4.80;;
18726;SDS011;9492;51.888;5.186;2023-08-30T00:15:16;4.67;;;4.27;;
18726;SDS011;9492;51.888;5.186;2023-08-30T00:17:42;4.40;;;4.00;;
18726;SDS011;9492;51.888;5.186;2023-08-30T00:20:09;6.10;;;4.40;;
18726;SDS011;9492;51.888;5.186;2023-08-30T00:22:35;5.53;;;5.00;;
18726;SDS011;9492;51.888;5.186;2023-08-30T00:25:01;7.10;;;5.00;;
18726;SDS011;9492;51.888;5.186;2023-08-30T00:27:27;7.90;;;5.27;;
18726;SDS011;9492;51.888;5.186;2023-08-30T00:29:53;7.07;;;5.20;;
18726;SDS011;9492;51.888;5.186;2023-08-30T00:32:19;7.30;;;4.90;;
18726;SDS011;9492;51.888;5.186;2023-08-30T00:34:46;5.77;;;5.10;;
18726;SDS011;9492;51.888;5.186;2023-08-30T00:37:12;4.90;;;4.40;;
18726;SDS011;9492;51.888;5.186;2023-08-30T00:39:38;5.40;;;4.87;;
18726;SDS011;9492;51.888;5.186;2023-08-30T00:42:05;6.40;;;5.20;;
18726;SDS011;9492;51.888;5.186;2023-08-30T00:44:33;6.53;;;5.33;;
18726;SDS011;9492;51.888;5.186;2023-08-30T00:46:59;8.00;;;5.50;;
18726;SDS011;9492;51.888;5.186;2023-08-30T00:49:26;6.43;;;5.57;;
18726;SDS011;9492;51.888;5.186;2023-08-30T00:51:52;8.47;;;6.30;;
18726;SDS011;9492;51.888;5.186;2023-08-30T00:54:18;8.67;;;5.30;;
18726;SDS011;9492;51.888;5.186;2023-08-30T00:56:44;7.70;;;6.03;;
18726;SDS011;9492;51.888;5.186;2023-08-30T00:59:11;10.23;;;6.37;;
18726;SDS011;9492;51.888;5.186;2023-08-30T01:01:37;7.97;;;6.30;;
18726;SDS011;9492;51.888;5.186;2023-08-30T01:04:04;7.80;;;6.00;;
18726;SDS011;9492;51.888;5.186;2023-08-30T01:06:30;7.77;;;6.27;;
18726;SDS011;9492;51.888;5.186;2023-08-30T01:08:56;7.00;;;5.53;;
18726;SDS011;9492;51.888;5.186;2023-08-30T01:14:08;7.90;;;5.77;;
18726;SDS011;9492;51.888;5.186;2023-08-30T01:16:37;7.63;;;5.80;;
18726;SDS011;9492;51.888;5.186;2023-08-30T01:21:53;8.70;;;6.77;;
18726;SDS011;9492;51.888;5.186;2023-08-30T01:24:26;8.43;;;6.97;;
18726;SDS011;9492;51.888;5.186;2023-08-30T01:29:26;8.27;;;7.00;;
18726;SDS011;9492;51.888;5.186;2023-08-30T01:31:52;8.87;;;6.60;;
18726;SDS011;9492;51.888;5.186;2023-08-30T01:34:18;10.40;;;7.97;;
18726;SDS011;9492;51.888;5.186;2023-08-30T01:36:45;11.90;;;7.40;;
18726;SDS011;9492;51.888;5.186;2023-08-30T01:39:11;9.13;;;8.13;;
18726;SDS011;9492;51.888;5.186;2023-08-30T01:41:39;12.63;;;7.67;;
18726;SDS011;9492;51.888;5.186;2023-08-30T01:44:05;11.23;;;8.20;;
18726;SDS011;9492;51.888;5.186;2023-08-30T01:46:33;9.57;;;7.83;;
18726;SDS011;9492;51.888;5.186;2023-08-30T01:49:00;11.80;;;8.03;;
18726;SDS011;9492;51.888;5.186;2023-08-30T01:51:27;12.20;;;7.83;;
18726;SDS011;9492;51.888;5.186;2023-08-30T01:53:54;10.03;;;7.77;;
18726;SDS011;9492;51.888;5.186;2023-08-30T01:56:20;12.30;;;8.40;;
18726;SDS011;9492;51.888;5.186;2023-08-30T01:58:46;9.90;;;7.57;;
18726;SDS011;9492;51.888;5.186;2023-08-30T02:01:12;13.37;;;8.30;;
18726;SDS011;9492;51.888;5.186;2023-08-30T02:03:38;14.40;;;8.67;;
18726;SDS011;9492;51.888;5.186;2023-08-30T02:06:09;12.67;;;9.80;;
18726;SDS011;9492;51.888;5.186;2023-08-30T02:08:59;10.47;;;9.00;;
18726;SDS011;9492;51.888;5.186;2023-08-30T02:11:23;9.23;;;8.17;;
18726;SDS011;9492;51.888;5.186;2023-08-30T02:13:50;12.67;;;8.57;;
18726;SDS011;9492;51.888;5.186;2023-08-30T02:16:18;11.83;;;9.23;;
18726;SDS011;9492;51.888;5.186;2023-08-30T02:18:44;10.47;;;8.90;;
18726;SDS011;9492;51.888;5.186;2023-08-30T02:21:10;12.07;;;8.33;;
18726;SDS011;9492;51.888;5.186;2023-08-30T02:23:36;14.13;;;9.40;;
18726;SDS011;9492;51.888;5.186;2023-08-30T02:26:02;13.30;;;9.30;;
18726;SDS011;9492;51.888;5.186;2023-08-30T02:28:29;14.67;;;9.53;;
18726;SDS011;9492;51.888;5.186;2023-08-30T02:30:55;14.03;;;8.23;;
18726;SDS011;9492;51.888;5.186;2023-08-30T02:33:21;11.23;;;8.80;;
18726;SDS011;9492;51.888;5.186;2023-08-30T02:35:47;9.93;;;7.30;;
18726;SDS011;9492;51.888;5.186;2023-08-30T02:38:13;13.03;;;8.83;;
18726;SDS011;9492;51.888;5.186;2023-08-30T02:40:39;11.40;;;8.57;;
18726;SDS011;9492;51.888;5.186;2023-08-30T02:43:05;13.97;;;8.60;;
18726;SDS011;9492;51.888;5.186;2023-08-30T02:45:31;12.87;;;9.10;;
18726;SDS011;9492;51.888;5.186;2023-08-30T02:47:57;10.90;;;9.03;;
18726;SDS011;9492;51.888;5.186;2023-08-30T02:50:23;11.70;;;8.43;;
18726;SDS011;9492;51.888;5.186;2023-08-30T02:52:50;12.63;;;9.33;;
18726;SDS011;9492;51.888;5.186;2023-08-30T02:55:17;9.67;;;8.03;;
18726;SDS011;9492;51.888;5.186;2023-08-30T02:57:43;12.63;;;8.43;;
18726;SDS011;9492;51.888;5.186;2023-08-30T03:00:09;11.43;;;8.50;;
18726;SDS011;9492;51.888;5.186;2023-08-30T03:02:35;10.47;;;8.43;;
18726;SDS011;9492;51.888;5.186;2023-08-30T03:05:01;11.27;;;8.70;;
18726;SDS011;9492;51.888;5.186;2023-08-30T03:07:29;11.83;;;8.53;;
18726;SDS011;9492;51.888;5.186;2023-08-30T03:09:55;12.53;;;8.40;;
18726;SDS011;9492;51.888;5.186;2023-08-30T03:12:21;10.47;;;7.87;;
18726;SDS011;9492;51.888;5.186;2023-08-30T03:14:47;10.63;;;8.70;;
18726;SDS011;9492;51.888;5.186;2023-08-30T03:17:13;12.67;;;9.40;;
18726;SDS011;9492;51.888;5.186;2023-08-30T03:19:39;12.07;;;9.50;;
18726;SDS011;9492;51.888;5.186;2023-08-30T03:22:05;14.87;;;10.00;;
18726;SDS011;9492;51.888;5.186;2023-08-30T03:24:31;12.83;;;10.57;;
18726;SDS011;9492;51.888;5.186;2023-08-30T03:26:57;13.93;;;10.57;;
18726;SDS011;9492;51.888;5.186;2023-08-30T03:29:24;16.23;;;11.00;;
18726;SDS011;9492;51.888;5.186;2023-08-30T03:31:50;13.47;;;10.10;;
18726;SDS011;9492;51.888;5.186;2023-08-30T03:34:17;11.93;;;8.97;;
18726;SDS011;9492;51.888;5.186;2023-08-30T03:36:42;15.67;;;10.07;;
18726;SDS011;9492;51.888;5.186;2023-08-30T03:39:09;16.97;;;10.17;;
18726;SDS011;9492;51.888;5.186;2023-08-30T03:41:37;12.57;;;8.60;;
18726;SDS011;9492;51.888;5.186;2023-08-30T03:44:03;14.37;;;10.60;;
18726;SDS011;9492;51.888;5.186;2023-08-30T03:46:29;12.63;;;10.10;;
18726;SDS011;9492;51.888;5.186;2023-08-30T03:48:55;15.57;;;10.40;;
18726;SDS011;9492;51.888;5.186;2023-08-30T03:51:21;15.13;;;10.67;;
18726;SDS011;9492;51.888;5.186;2023-08-30T03:53:47;12.60;;;10.57;;
18726;SDS011;9492;51.888;5.186;2023-08-30T03:56:13;12.63;;;10.37;;
18726;SDS011;9492;51.888;5.186;2023-08-30T03:58:39;13.07;;;9.60;;
18726;SDS011;9492;51.888;5.186;2023-08-30T04:01:05;12.17;;;9.70;;
18726;SDS011;9492;51.888;5.186;2023-08-30T04:03:31;12.00;;;8.80;;
18726;SDS011;9492;51.888;5.186;2023-08-30T04:05:57;12.67;;;9.63;;
18726;SDS011;9492;51.888;5.186;2023-08-30T04:08:23;11.83;;;8.83;;
18726;SDS011;9492;51.888;5.186;2023-08-30T04:10:51;12.13;;;8.70;;
18726;SDS011;9492;51.888;5.186;2023-08-30T04:13:17;11.87;;;9.13;;
18726;SDS011;9492;51.888;5.186;2023-08-30T04:15:43;11.40;;;8.90;;
18726;SDS011;9492;51.888;5.186;2023-08-30T04:18:10;9.63;;;7.90;;
18726;SDS011;9492;51.888;5.186;2023-08-30T04:20:36;12.40;;;7.80;;
18726;SDS011;9492;51.888;5.186;2023-08-30T04:23:02;12.10;;;9.13;;
18726;SDS011;9492;51.888;5.186;2023-08-30T04:25:28;11.07;;;8.63;;
18726;SDS011;9492;51.888;5.186;2023-08-30T04:27:54;10.50;;;8.73;;
18726;SDS011;9492;51.888;5.186;2023-08-30T04:30:20;12.17;;;9.00;;
18726;SDS011;9492;51.888;5.186;2023-08-30T04:32:46;11.03;;;9.17;;
18726;SDS011;9492;51.888;5.186;2023-08-30T04:35:12;11.27;;;8.70;;
18726;SDS011;9492;51.888;5.186;2023-08-30T04:37:41;11.57;;;8.93;;
18726;SDS011;9492;51.888;5.186;2023-08-30T04:40:07;12.17;;;8.67;;
18726;SDS011;9492;51.888;5.186;2023-08-30T04:42:36;10.63;;;8.33;;
18726;SDS011;9492;51.888;5.186;2023-08-30T04:45:05;12.03;;;8.27;;
18726;SDS011;9492;51.888;5.186;2023-08-30T04:47:31;10.07;;;8.37;;
18726;SDS011;9492;51.888;5.186;2023-08-30T04:49:57;10.80;;;8.50;;
18726;SDS011;9492;51.888;5.186;2023-08-30T04:52:23;10.63;;;8.27;;
18726;SDS011;9492;51.888;5.186;2023-08-30T04:54:49;10.77;;;8.33;;
18726;SDS011;9492;51.888;5.186;2023-08-30T04:57:16;17.37;;;8.73;;
18726;SDS011;9492;51.888;5.186;2023-08-30T04:59:43;9.73;;;7.80;;
18726;SDS011;9492;51.888;5.186;2023-08-30T05:02:09;10.77;;;8.30;;
18726;SDS011;9492;51.888;5.186;2023-08-30T05:04:35;12.03;;;8.23;;
18726;SDS011;9492;51.888;5.186;2023-08-30T05:07:01;11.20;;;8.23;;
18726;SDS011;9492;51.888;5.186;2023-08-30T05:09:28;10.17;;;8.63;;
18726;SDS011;9492;51.888;5.186;2023-08-30T05:11:54;12.53;;;7.77;;
18726;SDS011;9492;51.888;5.186;2023-08-30T05:14:20;11.00;;;8.17;;
18726;SDS011;9492;51.888;5.186;2023-08-30T05:16:46;9.63;;;7.60;;
18726;SDS011;9492;51.888;5.186;2023-08-30T05:19:12;12.93;;;7.93;;
18726;SDS011;9492;51.888;5.186;2023-08-30T05:21:38;10.07;;;7.60;;
18726;SDS011;9492;51.888;5.186;2023-08-30T05:24:04;12.93;;;8.33;;
18726;SDS011;9492;51.888;5.186;2023-08-30T05:26:32;9.47;;;8.37;;
18726;SDS011;9492;51.888;5.186;2023-08-30T05:28:58;11.47;;;8.10;;
18726;SDS011;9492;51.888;5.186;2023-08-30T05:31:24;8.73;;;7.70;;
18726;SDS011;9492;51.888;5.186;2023-08-30T05:33:50;10.40;;;7.80;;
18726;SDS011;9492;51.888;5.186;2023-08-30T05:36:16;10.23;;;8.03;;
18726;SDS011;9492;51.888;5.186;2023-08-30T05:38:43;9.63;;;7.60;;
18726;SDS011;9492;51.888;5.186;2023-08-30T05:41:09;12.37;;;8.17;;
18726;SDS011;9492;51.888;5.186;2023-08-30T05:43:35;9.00;;;7.67;;
18726;SDS011;9492;51.888;5.186;2023-08-30T05:46:01;11.90;;;7.67;;
18726;SDS011;9492;51.888;5.186;2023-08-30T05:48:31;8.00;;;6.37;;
18726;SDS011;9492;51.888;5.186;2023-08-30T05:50:57;9.80;;;7.40;;
18726;SDS011;9492;51.888;5.186;2023-08-30T05:53:23;7.60;;;6.60;;
18726;SDS011;9492;51.888;5.186;2023-08-30T05:55:49;10.00;;;7.03;;
18726;SDS011;9492;51.888;5.186;2023-08-30T05:58:15;9.90;;;7.13;;
18726;SDS011;9492;51.888;5.186;2023-08-30T06:00:42;10.93;;;7.70;;
18726;SDS011;9492;51.888;5.186;2023-08-30T06:03:08;10.53;;;7.63;;
18726;SDS011;9492;51.888;5.186;2023-08-30T06:05:35;7.63;;;6.50;;
18726;SDS011;9492;51.888;5.186;2023-08-30T06:08:02;9.17;;;7.10;;
18726;SDS011;9492;51.888;5.186;2023-08-30T06:10:28;6.87;;;6.07;;
18726;SDS011;9492;51.888;5.186;2023-08-30T06:12:54;8.73;;;6.80;;
18726;SDS011;9492;51.888;5.186;2023-08-30T06:15:20;9.20;;;6.70;;
18726;SDS011;9492;51.888;5.186;2023-08-30T06:17:46;8.67;;;6.93;;
18726;SDS011;9492;51.888;5.186;2023-08-30T06:20:13;12.20;;;7.03;;
18726;SDS011;9492;51.888;5.186;2023-08-30T06:22:39;11.23;;;7.07;;
18726;SDS011;9492;51.888;5.186;2023-08-30T06:25:07;8.80;;;6.80;;
18726;SDS011;9492;51.888;5.186;2023-08-30T06:27:36;7.87;;;6.47;;
18726;SDS011;9492;51.888;5.186;2023-08-30T06:30:02;9.93;;;7.30;;
18726;SDS011;9492;51.888;5.186;2023-08-30T06:32:28;9.90;;;6.00;;
18726;SDS011;9492;51.888;5.186;2023-08-30T06:34:54;7.60;;;6.80;;
18726;SDS011;9492;51.888;5.186;2023-08-30T06:37:20;8.73;;;6.27;;
18726;SDS011;9492;51.888;5.186;2023-08-30T06:39:46;8.20;;;6.13;;
18726;SDS011;9492;51.888;5.186;2023-08-30T06:42:12;9.37;;;6.70;;
18726;SDS011;9492;51.888;5.186;2023-08-30T06:44:38;8.70;;;6.23;;
18726;SDS011;9492;51.888;5.186;2023-08-30T06:47:05;11.93;;;6.13;;
18726;SDS011;9492;51.888;5.186;2023-08-30T06:49:31;8.13;;;6.37;;
18726;SDS011;9492;51.888;5.186;2023-08-30T06:51:57;8.33;;;6.70;;
18726;SDS011;9492;51.888;5.186;2023-08-30T06:54:24;9.17;;;6.53;;
18726;SDS011;9492;51.888;5.186;2023-08-30T06:56:57;7.90;;;6.77;;
18726;SDS011;9492;51.888;5.186;2023-08-30T06:59:23;8.93;;;6.20;;
18726;SDS011;9492;51.888;5.186;2023-08-30T07:01:49;8.83;;;6.77;;
18726;SDS011;9492;51.888;5.186;2023-08-30T07:04:15;7.73;;;6.10;;
18726;SDS011;9492;51.888;5.186;2023-08-30T07:06:41;9.27;;;6.87;;
18726;SDS011;9492;51.888;5.186;2023-08-30T07:09:07;8.20;;;6.33;;
18726;SDS011;9492;51.888;5.186;2023-08-30T07:11:34;10.33;;;7.13;;
18726;SDS011;9492;51.888;5.186;2023-08-30T07:14:00;10.60;;;7.70;;
18726;SDS011;9492;51.888;5.186;2023-08-30T07:16:26;9.20;;;6.50;;
18726;SDS011;9492;51.888;5.186;2023-08-30T07:18:52;8.63;;;6.90;;
18726;SDS011;9492;51.888;5.186;2023-08-30T07:21:18;12.37;;;7.00;;
18726;SDS011;9492;51.888;5.186;2023-08-30T07:23:44;9.77;;;7.00;;
18726;SDS011;9492;51.888;5.186;2023-08-30T07:26:10;9.23;;;6.40;;
18726;SDS011;9492;51.888;5.186;2023-08-30T07:28:36;7.40;;;6.40;;
18726;SDS011;9492;51.888;5.186;2023-08-30T07:31:05;9.03;;;6.27;;
18726;SDS011;9492;51.888;5.186;2023-08-30T07:33:31;6.73;;;5.70;;
18726;SDS011;9492;51.888;5.186;2023-08-30T07:35:57;7.07;;;5.73;;
18726;SDS011;9492;51.888;5.186;2023-08-30T07:38:23;5.47;;;4.60;;
18726;SDS011;9492;51.888;5.186;2023-08-30T07:40:50;6.33;;;4.50;;
18726;SDS011;9492;51.888;5.186;2023-08-30T07:43:16;6.07;;;4.77;;
18726;SDS011;9492;51.888;5.186;2023-08-30T07:45:42;7.10;;;5.00;;
18726;SDS011;9492;51.888;5.186;2023-08-30T07:48:08;8.07;;;5.27;;
18726;SDS011;9492;51.888;5.186;2023-08-30T07:50:34;6.97;;;5.23;;
18726;SDS011;9492;51.888;5.186;2023-08-30T07:53:01;9.73;;;6.33;;
18726;SDS011;9492;51.888;5.186;2023-08-30T07:55:27;7.53;;;5.67;;
18726;SDS011;9492;51.888;5.186;2023-08-30T07:57:53;9.93;;;6.17;;
18726;SDS011;9492;51.888;5.186;2023-08-30T08:00:19;8.27;;;5.70;;
18726;SDS011;9492;51.888;5.186;2023-08-30T08:02:45;6.83;;;5.40;;
18726;SDS011;9492;51.888;5.186;2023-08-30T08:05:11;9.60;;;5.60;;
18726;SDS011;9492;51.888;5.186;2023-08-30T08:07:38;7.33;;;5.47;;
18726;SDS011;9492;51.888;5.186;2023-08-30T08:10:05;6.43;;;5.10;;
18726;SDS011;9492;51.888;5.186;2023-08-30T08:12:32;7.27;;;6.17;;
18726;SDS011;9492;51.888;5.186;2023-08-30T08:14:58;7.93;;;5.53;;
18726;SDS011;9492;51.888;5.186;2023-08-30T08:17:26;8.10;;;5.73;;
18726;SDS011;9492;51.888;5.186;2023-08-30T08:19:52;9.13;;;6.27;;
18726;SDS011;9492;51.888;5.186;2023-08-30T08:22:18;6.47;;;5.60;;
18726;SDS011;9492;51.888;5.186;2023-08-30T08:24:44;7.20;;;6.10;;
18726;SDS011;9492;51.888;5.186;2023-08-30T08:27:11;7.90;;;5.30;;
18726;SDS011;9492;51.888;5.186;2023-08-30T08:29:37;6.37;;;5.47;;
18726;SDS011;9492;51.888;5.186;2023-08-30T08:32:03;6.53;;;5.40;;
18726;SDS011;9492;51.888;5.186;2023-08-30T08:34:30;7.10;;;5.23;;
18726;SDS011;9492;51.888;5.186;2023-08-30T08:36:56;5.90;;;5.07;;
18726;SDS011;9492;51.888;5.186;2023-08-30T08:39:21;7.73;;;5.20;;
18726;SDS011;9492;51.888;5.186;2023-08-30T08:41:48;7.73;;;5.07;;
18726;SDS011;9492;51.888;5.186;2023-08-30T08:44:14;6.00;;;4.33;;
18726;SDS011;9492;51.888;5.186;2023-08-30T08:46:40;4.67;;;3.73;;
18726;SDS011;9492;51.888;5.186;2023-08-30T08:49:13;4.87;;;3.97;;
18726;SDS011;9492;51.888;5.186;2023-08-30T08:51:40;4.67;;;4.17;;
18726;SDS011;9492;51.888;5.186;2023-08-30T08:54:07;4.97;;;4.37;;
18726;SDS011;9492;51.888;5.186;2023-08-30T08:56:34;4.83;;;3.83;;
18726;SDS011;9492;51.888;5.186;2023-08-30T08:59:00;4.93;;;4.20;;
18726;SDS011;9492;51.888;5.186;2023-08-30T09:01:26;6.43;;;4.50;;
18726;SDS011;9492;51.888;5.186;2023-08-30T09:03:53;4.53;;;4.13;;
18726;SDS011;9492;51.888;5.186;2023-08-30T09:06:19;5.33;;;4.83;;
18726;SDS011;9492;51.888;5.186;2023-08-30T09:08:45;5.23;;;4.73;;
18726;SDS011;9492;51.888;5.186;2023-08-30T09:11:11;5.50;;;5.00;;
18726;SDS011;9492;51.888;5.186;2023-08-30T09:13:38;6.73;;;5.13;;
18726;SDS011;9492;51.888;5.186;2023-08-30T09:16:14;7.33;;;5.80;;
18726;SDS011;9492;51.888;5.186;2023-08-30T09:18:43;6.30;;;5.70;;
18726;SDS011;9492;51.888;5.186;2023-08-30T09:21:10;6.40;;;5.70;;
18726;SDS011;9492;51.888;5.186;2023-08-30T09:23:36;8.40;;;6.50;;
18726;SDS011;9492;51.888;5.186;2023-08-30T09:26:02;7.57;;;6.77;;
18726;SDS011;9492;51.888;5.186;2023-08-30T09:28:29;6.80;;;6.20;;
18726;SDS011;9492;51.888;5.186;2023-08-30T09:30:57;7.20;;;6.60;;
18726;SDS011;9492;51.888;5.186;2023-08-30T09:33:32;8.73;;;6.43;;
18726;SDS011;9492;51.888;5.186;2023-08-30T09:35:58;6.90;;;6.30;;
18726;SDS011;9492;51.888;5.186;2023-08-30T09:38:24;7.20;;;6.50;;
18726;SDS011;9492;51.888;5.186;2023-08-30T09:40:51;7.67;;;6.90;;
18726;SDS011;9492;51.888;5.186;2023-08-30T09:43:18;7.20;;;6.50;;
18726;SDS011;9492;51.888;5.186;2023-08-30T09:45:46;6.70;;;6.10;;
18726;SDS011;9492;51.888;5.186;2023-08-30T09:48:12;7.47;;;6.77;;
18726;SDS011;9492;51.888;5.186;2023-08-30T09:50:39;8.23;;;7.37;;
18726;SDS011;9492;51.888;5.186;2023-08-30T09:53:08;7.43;;;6.73;;
18726;SDS011;9492;51.888;5.186;2023-08-30T09:55:35;7.63;;;6.93;;
18726;SDS011;9492;51.888;5.186;2023-08-30T09:58:04;7.60;;;7.00;;
18726;SDS011;9492;51.888;5.186;2023-08-30T10:00:33;6.80;;;5.90;;
18726;SDS011;9492;51.888;5.186;2023-08-30T10:02:59;6.40;;;5.80;;
18726;SDS011;9492;51.888;5.186;2023-08-30T10:05:26;6.00;;;5.40;;
18726;SDS011;9492;51.888;5.186;2023-08-30T10:07:53;4.97;;;4.57;;
18726;SDS011;9492;51.888;5.186;2023-08-30T10:10:20;4.53;;;3.77;;
18726;SDS011;9492;51.888;5.186;2023-08-30T10:12:46;5.37;;;3.67;;
18726;SDS011;9492;51.888;5.186;2023-08-30T10:15:12;4.17;;;3.77;;
18726;SDS011;9492;51.888;5.186;2023-08-30T10:17:39;4.93;;;4.43;;
18726;SDS011;9492;51.888;5.186;2023-08-30T10:20:07;4.27;;;3.67;;
18726;SDS011;9492;51.888;5.186;2023-08-30T10:22:36;3.87;;;3.47;;
18726;SDS011;9492;51.888;5.186;2023-08-30T10:25:04;3.80;;;3.50;;
18726;SDS011;9492;51.888;5.186;2023-08-30T10:27:31;3.73;;;3.23;;
18726;SDS011;9492;51.888;5.186;2023-08-30T10:30:00;3.40;;;2.97;;
18726;SDS011;9492;51.888;5.186;2023-08-30T10:32:28;2.63;;;2.43;;
18726;SDS011;9492;51.888;5.186;2023-08-30T10:34:55;5.33;;;2.40;;
18726;SDS011;9492;51.888;5.186;2023-08-30T10:37:26;5.00;;;3.43;;
18726;SDS011;9492;51.888;5.186;2023-08-30T10:39:52;4.97;;;3.00;;
18726;SDS011;9492;51.888;5.186;2023-08-30T10:42:21;3.50;;;3.13;;
18726;SDS011;9492;51.888;5.186;2023-08-30T10:47:23;3.63;;;3.00;;
18726;SDS011;9492;51.888;5.186;2023-08-30T10:49:53;4.83;;;3.20;;
18726;SDS011;9492;51.888;5.186;2023-08-30T10:52:23;3.07;;;2.83;;
18726;SDS011;9492;51.888;5.186;2023-08-30T10:54:49;3.77;;;2.73;;
18726;SDS011;9492;51.888;5.186;2023-08-30T10:57:18;8.13;;;3.70;;
18726;SDS011;9492;51.888;5.186;2023-08-30T11:02:29;5.63;;;3.27;;
18726;SDS011;9492;51.888;5.186;2023-08-30T11:04:57;4.93;;;2.93;;
18726;SDS011;9492;51.888;5.186;2023-08-30T11:07:24;4.17;;;2.80;;
18726;SDS011;9492;51.888;5.186;2023-08-30T11:09:51;5.77;;;3.30;;
18726;SDS011;9492;51.888;5.186;2023-08-30T11:12:17;4.23;;;2.80;;
18726;SDS011;9492;51.888;5.186;2023-08-30T11:14:44;4.87;;;3.10;;
18726;SDS011;9492;51.888;5.186;2023-08-30T11:17:10;4.47;;;2.67;;
18726;SDS011;9492;51.888;5.186;2023-08-30T11:19:36;7.63;;;3.20;;
18726;SDS011;9492;51.888;5.186;2023-08-30T11:22:02;5.13;;;2.77;;
18726;SDS011;9492;51.888;5.186;2023-08-30T11:24:28;6.20;;;3.43;;
18726;SDS011;9492;51.888;5.186;2023-08-30T11:26:55;4.33;;;2.60;;
18726;SDS011;9492;51.888;5.186;2023-08-30T11:29:21;4.77;;;3.03;;
18726;SDS011;9492;51.888;5.186;2023-08-30T11:31:47;4.50;;;2.67;;
18726;SDS011;9492;51.888;5.186;2023-08-30T11:34:14;8.10;;;2.80;;
18726;SDS011;9492;51.888;5.186;2023-08-30T11:36:45;8.57;;;2.90;;
18726;SDS011;9492;51.888;5.186;2023-08-30T11:39:12;7.70;;;2.57;;
18726;SDS011;9492;51.888;5.186;2023-08-30T11:41:39;5.93;;;2.40;;
18726;SDS011;9492;51.888;5.186;2023-08-30T11:44:05;6.23;;;2.50;;
18726;SDS011;9492;51.888;5.186;2023-08-30T11:46:31;8.37;;;2.80;;
18726;SDS011;9492;51.888;5.186;2023-08-30T11:48:57;6.17;;;2.93;;
18726;SDS011;9492;51.888;5.186;2023-08-30T11:51:24;6.23;;;2.93;;
18726;SDS011;9492;51.888;5.186;2023-08-30T11:53:50;5.87;;;2.47;;
18726;SDS011;9492;51.888;5.186;2023-08-30T11:56:16;6.27;;;2.50;;
18726;SDS011;9492;51.888;5.186;2023-08-30T11:58:42;9.27;;;2.60;;
18726;SDS011;9492;51.888;5.186;2023-08-30T12:01:08;4.40;;;2.50;;
18726;SDS011;9492;51.888;5.186;2023-08-30T12:03:34;8.50;;;2.70;;
18726;SDS011;9492;51.888;5.186;2023-08-30T12:06:01;6.80;;;2.60;;
18726;SDS011;9492;51.888;5.186;2023-08-30T12:08:31;7.63;;;2.60;;
18726;SDS011;9492;51.888;5.186;2023-08-30T12:10:57;5.70;;;2.30;;
18726;SDS011;9492;51.888;5.186;2023-08-30T12:13:31;8.33;;;3.47;;
18726;SDS011;9492;51.888;5.186;2023-08-30T12:15:58;6.53;;;3.03;;
18726;SDS011;9492;51.888;5.186;2023-08-30T12:18:24;6.63;;;3.10;;
18726;SDS011;9492;51.888;5.186;2023-08-30T12:20:53;8.10;;;3.20;;
18726;SDS011;9492;51.888;5.186;2023-08-30T12:23:23;5.03;;;2.60;;
18726;SDS011;9492;51.888;5.186;2023-08-30T12:28:25;6.47;;;2.47;;
18726;SDS011;9492;51.888;5.186;2023-08-30T12:30:51;6.67;;;2.23;;
18726;SDS011;9492;51.888;5.186;2023-08-30T12:33:17;4.27;;;2.40;;
18726;SDS011;9492;51.888;5.186;2023-08-30T12:35:44;4.70;;;2.40;;
18726;SDS011;9492;51.888;5.186;2023-08-30T12:38:10;7.07;;;2.07;;
18726;SDS011;9492;51.888;5.186;2023-08-30T12:40:49;4.83;;;2.10;;
18726;SDS011;9492;51.888;5.186;2023-08-30T12:43:15;9.50;;;2.30;;
18726;SDS011;9492;51.888;5.186;2023-08-30T12:45:42;4.60;;;1.73;;
18726;SDS011;9492;51.888;5.186;2023-08-30T12:48:08;4.83;;;1.93;;
18726;SDS011;9492;51.888;5.186;2023-08-30T12:50:35;6.90;;;2.53;;
18726;SDS011;9492;51.888;5.186;2023-08-30T12:53:02;4.90;;;2.03;;
18726;SDS011;9492;51.888;5.186;2023-08-30T12:55:28;3.67;;;2.00;;
18726;SDS011;9492;51.888;5.186;2023-08-30T12:57:54;5.43;;;2.50;;
18726;SDS011;9492;51.888;5.186;2023-08-30T13:00:20;6.90;;;2.83;;
18726;SDS011;9492;51.888;5.186;2023-08-30T13:02:46;8.13;;;3.00;;
18726;SDS011;9492;51.888;5.186;2023-08-30T13:05:12;5.03;;;2.17;;
18726;SDS011;9492;51.888;5.186;2023-08-30T13:07:38;8.60;;;2.53;;
18726;SDS011;9492;51.888;5.186;2023-08-30T13:10:05;10.97;;;2.70;;
18726;SDS011;9492;51.888;5.186;2023-08-30T13:12:31;4.40;;;1.97;;
18726;SDS011;9492;51.888;5.186;2023-08-30T13:14:57;6.97;;;2.33;;
18726;SDS011;9492;51.888;5.186;2023-08-30T13:17:23;6.90;;;2.17;;
18726;SDS011;9492;51.888;5.186;2023-08-30T13:19:49;3.97;;;2.37;;
18726;SDS011;9492;51.888;5.186;2023-08-30T13:22:16;5.73;;;2.10;;
18726;SDS011;9492;51.888;5.186;2023-08-30T13:24:43;4.93;;;2.63;;
18726;SDS011;9492;51.888;5.186;2023-08-30T13:27:09;5.67;;;1.93;;
18726;SDS011;9492;51.888;5.186;2023-08-30T13:29:35;5.87;;;1.80;;
18726;SDS011;9492;51.888;5.186;2023-08-30T13:32:01;4.73;;;1.70;;
18726;SDS011;9492;51.888;5.186;2023-08-30T13:34:28;3.27;;;1.50;;
18726;SDS011;9492;51.888;5.186;2023-08-30T13:36:54;4.03;;;1.37;;
18726;SDS011;9492;51.888;5.186;2023-08-30T13:39:20;4.53;;;1.90;;
18726;SDS011;9492;51.888;5.186;2023-08-30T13:41:47;5.20;;;1.57;;
18726;SDS011;9492;51.888;5.186;2023-08-30T13:44:13;2.77;;;1.30;;
18726;SDS011;9492;51.888;5.186;2023-08-30T13:46:39;4.70;;;1.80;;
18726;SDS011;9492;51.888;5.186;2023-08-30T13:49:05;5.07;;;1.43;;
18726;SDS011;9492;51.888;5.186;2023-08-30T13:51:31;3.53;;;1.47;;
18726;SDS011;9492;51.888;5.186;2023-08-30T13:53:57;6.43;;;2.37;;
18726;SDS011;9492;51.888;5.186;2023-08-30T13:56:23;5.83;;;1.90;;
18726;SDS011;9492;51.888;5.186;2023-08-30T13:58:50;3.97;;;1.87;;
18726;SDS011;9492;51.888;5.186;2023-08-30T14:01:16;5.83;;;1.97;;
18726;SDS011;9492;51.888;5.186;2023-08-30T14:03:42;7.80;;;1.90;;
18726;SDS011;9492;51.888;5.186;2023-08-30T14:06:08;3.03;;;1.63;;
18726;SDS011;9492;51.888;5.186;2023-08-30T14:08:35;2.73;;;1.40;;
18726;SDS011;9492;51.888;5.186;2023-08-30T14:11:01;3.50;;;1.67;;
18726;SDS011;9492;51.888;5.186;2023-08-30T14:13:27;4.37;;;1.73;;
18726;SDS011;9492;51.888;5.186;2023-08-30T14:15:57;4.27;;;1.47;;
18726;SDS011;9492;51.888;5.186;2023-08-30T14:18:23;3.17;;;1.17;;
18726;SDS011;9492;51.888;5.186;2023-08-30T14:20:49;2.80;;;1.50;;
18726;SDS011;9492;51.888;5.186;2023-08-30T14:23:15;4.43;;;1.30;;
18726;SDS011;9492;51.888;5.186;2023-08-30T14:25:41;3.93;;;1.40;;
18726;SDS011;9492;51.888;5.186;2023-08-30T14:28:07;2.33;;;1.30;;
18726;SDS011;9492;51.888;5.186;2023-08-30T14:30:33;2.73;;;1.33;;
18726;SDS011;9492;51.888;5.186;2023-08-30T14:33:00;2.17;;;1.67;;
18726;SDS011;9492;51.888;5.186;2023-08-30T14:35:26;5.00;;;1.60;;
18726;SDS011;9492;51.888;5.186;2023-08-30T14:37:53;3.67;;;1.90;;
18726;SDS011;9492;51.888;5.186;2023-08-30T14:40:20;4.50;;;1.60;;
18726;SDS011;9492;51.888;5.186;2023-08-30T14:42:46;3.33;;;1.30;;
18726;SDS011;9492;51.888;5.186;2023-08-30T14:45:12;5.80;;;1.37;;
18726;SDS011;9492;51.888;5.186;2023-08-30T14:47:38;3.40;;;1.40;;
18726;SDS011;9492;51.888;5.186;2023-08-30T14:50:04;5.57;;;1.93;;
18726;SDS011;9492;51.888;5.186;2023-08-30T14:52:30;2.87;;;1.50;;
18726;SDS011;9492;51.888;5.186;2023-08-30T14:54:56;3.83;;;1.67;;
18726;SDS011;9492;51.888;5.186;2023-08-30T14:57:22;5.43;;;1.40;;
18726;SDS011;9492;51.888;5.186;2023-08-30T14:59:50;2.87;;;1.40;;
18726;SDS011;9492;51.888;5.186;2023-08-30T15:02:16;3.23;;;1.40;;
18726;SDS011;9492;51.888;5.186;2023-08-30T15:04:42;4.63;;;1.97;;
18726;SDS011;9492;51.888;5.186;2023-08-30T15:07:07;3.77;;;1.53;;
18726;SDS011;9492;51.888;5.186;2023-08-30T15:09:33;3.93;;;1.80;;